createdAt,value
2022-11-20T00:01:16.080Z,33.63
2022-11-20T00:03:43.968Z,31.23
2022-11-20T00:06:14.101Z,34.25
2022-11-20T00:08:42.227Z,38.05
2022-11-20T00:11:16.293Z,36.10
2022-11-20T00:13:48.654Z,44.15
2022-11-20T00:16:20.369Z,43.10
2022-11-20T00:18:51.165Z,43.70
2022-11-20T00:21:28.746Z,41.90
2022-11-20T00:23:59.219Z,42.75
2022-11-20T00:26:27.923Z,43.45
2022-11-20T00:28:59.460Z,42.08
2022-11-20T00:31:27.709Z,45.80
2022-11-20T00:33:55.360Z,44.53
2022-11-20T00:36:25.052Z,47.88
2022-11-20T00:38:53.584Z,43.25
2022-11-20T00:41:20.682Z,51.03
2022-11-20T00:43:52.255Z,48.67
2022-11-20T00:46:22.154Z,48.63
2022-11-20T00:48:49.627Z,47.80
2022-11-20T00:51:19.988Z,47.78
2022-11-20T00:53:48.105Z,51.22
2022-11-20T00:56:21.142Z,49.35
2022-11-20T00:58:49.805Z,46.03
2022-11-20T01:01:24.978Z,51.13
2022-11-20T01:03:54.784Z,46.28
2022-11-20T01:06:26.141Z,49.78
2022-11-20T01:08:55.953Z,42.63
2022-11-20T01:11:25.986Z,45.35
2022-11-20T01:13:55.464Z,48.67
2022-11-20T01:16:34.192Z,47.28
2022-11-20T01:19:06.016Z,44.95
2022-11-20T01:21:36.056Z,41.33
2022-11-20T01:24:04.964Z,48.03
2022-11-20T01:26:34.682Z,40.95
2022-11-20T01:29:03.816Z,41.35
2022-11-20T01:31:35.658Z,43.97
2022-11-20T01:34:08.320Z,41.08
2022-11-20T01:36:37.376Z,37.50
2022-11-20T01:39:16.562Z,40.58
2022-11-20T01:41:45.037Z,47.03
2022-11-20T01:44:14.950Z,38.50
2022-11-20T01:46:52.497Z,40.17
2022-11-20T01:49:30.908Z,36.70
2022-11-20T01:52:06.127Z,36.05
2022-11-20T01:54:40.432Z,36.50
2022-11-20T01:57:11.836Z,35.47
2022-11-20T01:59:47.349Z,33.85
2022-11-20T02:02:15.452Z,36.72
2022-11-20T02:04:48.201Z,33.88
2022-11-20T02:07:15.453Z,35.75
2022-11-20T02:09:45.477Z,30.48
2022-11-20T02:12:12.808Z,30.15
2022-11-20T02:14:42.788Z,33.25
2022-11-20T02:17:09.895Z,32.83
2022-11-20T02:19:40.166Z,29.17
2022-11-20T02:22:21.029Z,28.55
2022-11-20T02:24:52.115Z,26.83
2022-11-20T02:27:19.409Z,26.77
2022-11-20T02:29:54.005Z,26.90
2022-11-20T02:32:23.096Z,27.25
2022-11-20T02:34:53.192Z,26.38
2022-11-20T02:37:21.570Z,30.10
2022-11-20T02:39:51.035Z,26.63
2022-11-20T02:42:20.624Z,27.38
2022-11-20T02:44:47.967Z,28.60
2022-11-20T02:47:15.292Z,29.15
2022-11-20T02:49:42.575Z,32.28
2022-11-20T02:52:09.668Z,24.33
2022-11-20T02:54:37.179Z,27.50
2022-11-20T02:57:04.158Z,29.50
2022-11-20T02:59:33.803Z,32.08
2022-11-20T03:02:00.975Z,31.98
2022-11-20T03:04:28.312Z,32.42
2022-11-20T03:06:55.277Z,36.60
2022-11-20T03:09:23.035Z,33.13
2022-11-20T03:11:52.971Z,35.17
2022-11-20T03:14:22.929Z,34.40
2022-11-20T03:16:50.047Z,33.35
2022-11-20T03:19:17.629Z,37.80
2022-11-20T03:21:44.687Z,33.67
2022-11-20T03:24:12.190Z,32.85
2022-11-20T03:26:43.877Z,35.20
2022-11-20T03:29:13.407Z,32.88
2022-11-20T03:31:41.932Z,33.08
2022-11-20T03:34:11.894Z,35.20
2022-11-20T03:36:40.624Z,31.95
2022-11-20T03:39:11.039Z,34.30
2022-11-20T03:41:43.903Z,33.90
2022-11-20T03:44:12.427Z,35.88
2022-11-20T03:46:39.819Z,32.63
2022-11-20T03:49:09.429Z,34.88
2022-11-20T03:51:39.033Z,41.13
2022-11-20T03:54:10.289Z,37.70
2022-11-20T03:56:40.033Z,35.78
2022-11-20T03:59:07.987Z,37.15
2022-11-20T04:01:37.233Z,35.35
2022-11-20T04:04:04.882Z,35.92
2022-11-20T04:06:36.017Z,39.20
2022-11-20T04:09:04.177Z,38.30
2022-11-20T04:11:33.379Z,36.50
2022-11-20T04:14:05.648Z,33.45
2022-11-20T04:16:36.969Z,34.78
2022-11-20T04:19:11.200Z,32.95
2022-11-20T04:24:08.890Z,31.08
2022-11-20T04:26:41.544Z,34.67
2022-11-20T04:29:12.405Z,35.55
2022-11-20T04:31:39.751Z,35.17
2022-11-20T04:34:08.213Z,32.05
2022-11-20T04:36:37.834Z,32.47
2022-11-20T04:39:12.792Z,31.10
2022-11-20T04:41:42.394Z,33.85
2022-11-20T04:44:09.631Z,30.67
2022-11-20T04:46:39.674Z,30.38
2022-11-20T04:49:07.743Z,32.03
2022-11-20T04:51:35.276Z,33.88
2022-11-20T04:54:02.759Z,30.90
2022-11-20T04:56:30.001Z,32.22
2022-11-20T04:59:03.554Z,34.67
2022-11-20T05:01:31.375Z,33.28
2022-11-20T05:03:58.730Z,33.50
2022-11-20T05:06:28.565Z,32.63
2022-11-20T05:08:55.983Z,35.60
2022-11-20T05:11:23.236Z,35.13
2022-11-20T05:13:52.126Z,30.90
2022-11-20T05:16:22.665Z,35.45
2022-11-20T05:18:50.858Z,33.55
2022-11-20T05:21:18.796Z,36.15
2022-11-20T05:23:51.463Z,36.20
2022-11-20T05:26:21.600Z,34.20
2022-11-20T05:28:52.242Z,34.35
2022-11-20T05:31:28.120Z,35.40
2022-11-20T05:33:57.291Z,32.40
2022-11-20T05:36:24.956Z,31.65
2022-11-20T05:39:00.928Z,30.60
2022-11-20T05:41:28.464Z,33.55
2022-11-20T05:43:57.735Z,32.42
2022-11-20T05:46:28.161Z,30.48
2022-11-20T05:48:57.955Z,31.75
2022-11-20T05:51:29.979Z,30.80
2022-11-20T05:53:57.868Z,34.30
2022-11-20T05:56:27.529Z,30.50
2022-11-20T05:58:54.919Z,34.10
2022-11-20T06:01:25.739Z,31.70
2022-11-20T06:03:55.038Z,31.65
2022-11-20T06:06:24.486Z,32.72
2022-11-20T06:08:54.068Z,35.67
2022-11-20T06:11:21.397Z,36.72
2022-11-20T06:13:48.899Z,32.72
2022-11-20T06:16:20.801Z,37.90
2022-11-20T06:18:49.184Z,36.92
2022-11-20T06:21:18.872Z,31.42
2022-11-20T06:23:47.116Z,34.13
2022-11-20T06:26:17.710Z,30.88
2022-11-20T06:28:47.625Z,28.02
2022-11-20T06:31:16.903Z,29.10
2022-11-20T06:33:47.156Z,29.02
2022-11-20T06:36:15.820Z,27.73
2022-11-20T06:38:46.395Z,28.55
2022-11-20T06:41:23.686Z,28.73
2022-11-20T06:43:52.034Z,29.88
2022-11-20T06:46:20.529Z,34.17
2022-11-20T06:48:50.890Z,35.22
2022-11-20T06:51:18.325Z,30.92
2022-11-20T06:53:48.519Z,28.88
2022-11-20T06:56:15.678Z,29.20
2022-11-20T06:58:42.944Z,31.60
2022-11-20T07:01:15.811Z,28.60
2022-11-20T07:03:48.928Z,25.20
2022-11-20T07:06:18.665Z,28.90
2022-11-20T07:08:45.985Z,26.13
2022-11-20T07:11:15.506Z,30.33
2022-11-20T07:13:45.832Z,35.13
2022-11-20T07:16:12.825Z,31.50
2022-11-20T07:18:40.092Z,33.47
2022-11-20T07:21:09.413Z,36.42
2022-11-20T07:23:37.476Z,36.78
2022-11-20T07:26:09.005Z,36.17
2022-11-20T07:28:37.318Z,36.70
2022-11-20T07:31:05.065Z,34.42
2022-11-20T07:33:32.515Z,35.58
2022-11-20T07:36:00.796Z,36.53
2022-11-20T07:38:28.293Z,44.20
2022-11-20T07:40:58.438Z,48.22
2022-11-20T07:43:26.152Z,43.13
2022-11-20T07:45:53.195Z,42.92
2022-11-20T07:48:20.493Z,41.17
2022-11-20T07:50:54.021Z,36.13
2022-11-20T07:53:21.428Z,37.80
2022-11-20T07:55:50.988Z,38.80
2022-11-20T07:58:18.330Z,36.88
2022-11-20T08:00:45.371Z,39.17
2022-11-20T08:03:13.093Z,35.28
2022-11-20T08:05:44.866Z,33.67
2022-11-20T08:08:14.547Z,36.25
2022-11-20T08:10:41.704Z,38.72
2022-11-20T08:13:10.052Z,35.10
2022-11-20T08:15:38.567Z,37.15
2022-11-20T08:21:03.780Z,42.50
2022-11-20T08:23:31.377Z,53.55
2022-11-20T08:26:03.186Z,36.25
2022-11-20T08:28:30.510Z,32.28
2022-11-20T08:31:06.040Z,29.88
2022-11-20T08:33:33.468Z,33.22
2022-11-20T08:36:05.665Z,27.65
2022-11-20T08:38:35.605Z,27.73
2022-11-20T08:41:06.062Z,29.17
2022-11-20T08:43:33.540Z,26.33
2022-11-20T08:46:00.595Z,28.05
2022-11-20T08:48:28.136Z,26.77
2022-11-20T08:50:58.241Z,28.00
2022-11-20T08:53:25.526Z,29.40
2022-11-20T08:55:52.921Z,28.25
2022-11-20T08:58:20.280Z,27.40
2022-11-20T09:00:47.423Z,29.13
2022-11-20T09:03:17.627Z,25.75
2022-11-20T09:05:46.853Z,26.98
2022-11-20T09:08:14.229Z,27.20
2022-11-20T09:10:41.732Z,27.70
2022-11-20T09:13:09.155Z,28.10
2022-11-20T09:15:40.627Z,25.42
2022-11-20T09:18:08.334Z,25.97
2022-11-20T09:20:35.295Z,21.65
2022-11-20T09:23:02.656Z,23.40
2022-11-20T09:25:30.044Z,21.10
2022-11-20T09:27:58.190Z,21.63
2022-11-20T09:30:25.995Z,18.13
2022-11-20T09:32:53.795Z,20.88
2022-11-20T09:35:20.887Z,17.52
2022-11-20T09:37:48.225Z,17.33
2022-11-20T09:40:22.801Z,23.95
2022-11-20T09:43:18.541Z,19.55
2022-11-20T09:45:59.621Z,20.20
2022-11-20T09:48:47.706Z,17.88
2022-11-20T09:51:39.696Z,31.63
2022-11-20T09:54:20.157Z,19.38
2022-11-20T09:56:57.991Z,17.38
2022-11-20T09:59:36.567Z,18.30
2022-11-20T10:02:33.015Z,16.02
2022-11-20T10:05:26.915Z,16.40
2022-11-20T10:07:54.323Z,15.07
2022-11-20T10:10:44.293Z,18.73
2022-11-20T10:13:30.564Z,17.00
2022-11-20T10:16:16.439Z,17.55
2022-11-20T10:19:25.656Z,17.73
2022-11-20T10:22:34.309Z,17.23
2022-11-20T10:25:14.355Z,15.27
2022-11-20T10:27:56.716Z,17.17
2022-11-20T10:30:24.805Z,18.42
2022-11-20T10:33:25.384Z,18.98
2022-11-20T10:36:01.784Z,17.30
2022-11-20T10:38:38.239Z,18.45
2022-11-20T10:41:07.486Z,18.60
2022-11-20T10:43:37.679Z,20.85
2022-11-20T10:46:13.453Z,20.13
2022-11-20T10:48:46.127Z,18.92
2022-11-20T10:51:51.983Z,17.75
2022-11-20T10:55:01.050Z,20.77
2022-11-20T10:58:00.315Z,20.17
2022-11-20T11:00:27.791Z,19.63
2022-11-20T11:02:55.708Z,17.92
2022-11-20T11:05:38.001Z,21.75
2022-11-20T11:08:13.048Z,19.47
2022-11-20T11:11:00.015Z,21.50
2022-11-20T11:13:31.090Z,21.02
2022-11-20T11:16:01.234Z,24.30
2022-11-20T11:18:35.355Z,22.17
2022-11-20T11:21:06.358Z,22.33
2022-11-20T11:23:40.016Z,22.23
2022-11-20T11:26:23.093Z,24.85
2022-11-20T11:28:59.859Z,27.23
2022-11-20T11:31:35.672Z,25.55
2022-11-20T11:34:12.748Z,23.80
2022-11-20T11:36:43.555Z,29.95
2022-11-20T11:39:18.040Z,25.15
2022-11-20T11:41:45.849Z,26.20
2022-11-20T11:44:23.670Z,26.17
2022-11-20T11:46:55.046Z,25.35
2022-11-20T11:49:23.009Z,26.42
2022-11-20T11:52:09.086Z,25.73
2022-11-20T11:54:44.094Z,27.25
2022-11-20T11:57:29.497Z,29.52
2022-11-20T12:00:04.712Z,31.23
2022-11-20T12:02:46.205Z,30.73
2022-11-20T12:05:25.453Z,28.10
2022-11-20T12:08:23.750Z,30.83
2022-11-20T12:11:25.194Z,28.25
2022-11-20T12:14:04.757Z,28.85
2022-11-20T12:16:36.612Z,33.13
2022-11-20T12:19:10.867Z,30.17
2022-11-20T12:21:46.925Z,28.40
2022-11-20T12:24:40.072Z,27.73
2022-11-20T12:27:13.185Z,26.45
2022-11-20T12:29:55.680Z,29.33
2022-11-20T12:32:57.880Z,32.13
2022-11-20T12:35:53.995Z,29.15
2022-11-20T12:38:42.865Z,30.48
2022-11-20T12:41:44.464Z,31.67
2022-11-20T12:44:29.740Z,31.63
2022-11-20T12:47:07.247Z,31.83
2022-11-20T12:49:44.316Z,31.92
2022-11-20T12:52:17.798Z,31.48
2022-11-20T12:54:59.072Z,30.58
2022-11-20T12:57:35.767Z,29.17
2022-11-20T13:00:21.325Z,29.58
2022-11-20T13:03:14.330Z,27.48
2022-11-20T13:06:08.204Z,30.20
2022-11-20T13:08:39.676Z,29.65
2022-11-20T13:11:31.694Z,27.08
2022-11-20T13:14:21.855Z,32.13
2022-11-20T13:17:20.952Z,33.92
2022-11-20T13:19:57.011Z,29.65
2022-11-20T13:22:48.261Z,31.45
2022-11-20T13:25:24.777Z,36.65
2022-11-20T13:27:55.281Z,27.52
2022-11-20T13:30:30.192Z,31.35
2022-11-20T13:33:06.819Z,31.83
2022-11-20T13:35:41.481Z,31.88
2022-11-20T13:38:14.215Z,35.08
2022-11-20T13:40:58.446Z,34.85
2022-11-20T13:43:42.938Z,37.92
2022-11-20T13:46:11.018Z,36.17
2022-11-20T13:48:42.384Z,37.47
2022-11-20T13:51:28.207Z,33.88
2022-11-20T13:54:05.723Z,37.75
2022-11-20T13:56:52.212Z,31.83
2022-11-20T13:59:22.550Z,34.85
2022-11-20T14:01:50.172Z,37.88
2022-11-20T14:04:26.950Z,34.80
2022-11-20T14:06:55.332Z,30.52
2022-11-20T14:09:28.512Z,30.50
2022-11-20T14:11:56.375Z,30.65
2022-11-20T14:14:30.275Z,29.00
2022-11-20T14:17:20.624Z,28.25
2022-11-20T14:19:50.362Z,29.13
2022-11-20T14:22:22.313Z,29.05
2022-11-20T14:25:01.504Z,30.00
2022-11-20T14:27:29.162Z,37.22
2022-11-20T14:30:01.769Z,29.50
2022-11-20T14:32:31.600Z,32.13
2022-11-20T14:35:10.477Z,32.58
2022-11-20T14:37:41.851Z,33.90
2022-11-20T14:40:28.728Z,35.28
2022-11-20T14:42:57.156Z,32.00
2022-11-20T14:45:25.978Z,39.97
2022-11-20T14:47:58.841Z,38.65
2022-11-20T14:50:28.818Z,38.92
2022-11-20T14:52:56.097Z,39.67
2022-11-20T14:55:42.113Z,37.40
2022-11-20T14:58:30.600Z,36.00
2022-11-20T15:01:00.959Z,31.05
2022-11-20T15:03:39.420Z,32.35
2022-11-20T15:06:12.938Z,31.92
2022-11-20T15:08:53.910Z,35.38
2022-11-20T15:11:29.584Z,32.40
2022-11-20T15:13:58.143Z,31.58
2022-11-20T15:16:25.646Z,35.20
2022-11-20T15:18:55.617Z,33.40
2022-11-20T15:21:23.112Z,33.35
2022-11-20T15:23:53.242Z,32.38
2022-11-20T15:26:28.436Z,36.50
2022-11-20T15:28:56.041Z,35.72
2022-11-20T15:31:24.541Z,35.58
2022-11-20T15:33:52.236Z,38.33
2022-11-20T15:36:22.059Z,36.13
2022-11-20T15:38:49.803Z,37.45
2022-11-20T15:41:16.840Z,38.42
2022-11-20T15:43:44.619Z,42.88
2022-11-20T15:46:21.631Z,44.38
2022-11-20T15:48:55.463Z,42.95
2022-11-20T15:51:36.103Z,42.90
2022-11-20T15:54:23.813Z,43.58
2022-11-20T15:56:53.334Z,45.10
2022-11-20T15:59:21.283Z,44.88
2022-11-20T16:01:48.503Z,40.58
2022-11-20T16:04:17.465Z,45.45
2022-11-20T16:06:45.116Z,41.55
2022-11-20T16:09:14.714Z,47.28
2022-11-20T16:11:41.941Z,45.28
2022-11-20T16:14:11.736Z,44.38
2022-11-20T16:16:38.896Z,44.00
2022-11-20T16:19:15.165Z,49.80
2022-11-20T16:21:43.439Z,45.15
2022-11-20T16:24:12.634Z,46.22
2022-11-20T16:26:42.371Z,44.85
2022-11-20T16:29:10.129Z,40.35
2022-11-20T16:31:37.431Z,46.60
2022-11-20T16:34:11.899Z,48.25
2022-11-20T16:36:44.163Z,47.70
2022-11-20T16:39:17.800Z,43.50
2022-11-20T16:41:47.685Z,37.97
2022-11-20T16:44:15.022Z,37.20
2022-11-20T16:46:44.439Z,39.53
2022-11-20T16:49:13.970Z,38.88
2022-11-20T16:51:43.438Z,38.53
2022-11-20T16:54:13.063Z,35.78
2022-11-20T16:56:42.385Z,38.67
2022-11-20T16:59:14.396Z,36.13
2022-11-20T17:01:41.585Z,34.58
2022-11-20T17:04:09.307Z,35.47
2022-11-20T17:06:42.823Z,37.92
2022-11-20T17:09:15.382Z,31.65
2022-11-20T17:11:42.554Z,36.28
2022-11-20T17:14:12.829Z,31.88
2022-11-20T17:16:40.741Z,35.47
2022-11-20T17:19:08.189Z,34.90
2022-11-20T17:21:36.417Z,35.95
2022-11-20T17:24:08.413Z,33.13
2022-11-20T17:26:40.621Z,33.30
2022-11-20T17:29:11.724Z,33.25
2022-11-20T17:31:39.487Z,33.33
2022-11-20T17:34:10.974Z,31.38
2022-11-20T17:36:44.791Z,34.42
2022-11-20T17:39:13.983Z,35.23
2022-11-20T17:41:41.174Z,30.70
2022-11-20T17:44:11.228Z,39.28
2022-11-20T17:46:40.818Z,38.30
2022-11-20T17:49:08.406Z,36.65
2022-11-20T17:51:35.821Z,34.67
2022-11-20T17:54:05.767Z,36.08
2022-11-20T17:56:34.497Z,33.72
2022-11-20T17:59:08.729Z,32.33
2022-11-20T18:04:04.083Z,33.33
2022-11-20T18:06:33.948Z,37.58
2022-11-20T18:09:05.307Z,40.05
2022-11-20T18:11:35.468Z,35.90
2022-11-20T18:14:06.319Z,34.55
2022-11-20T18:16:45.662Z,36.13
2022-11-20T18:19:17.615Z,34.72
2022-11-20T18:21:44.633Z,37.97
2022-11-20T18:24:14.733Z,35.05
2022-11-20T18:26:44.537Z,39.60
2022-11-20T18:29:15.000Z,37.55
2022-11-20T18:31:42.023Z,40.78
2022-11-20T18:34:09.727Z,35.05
2022-11-20T18:36:36.773Z,36.05
2022-11-20T18:39:04.408Z,37.15
2022-11-20T18:41:32.120Z,37.13
2022-11-20T18:44:00.400Z,34.20
2022-11-20T18:46:27.544Z,36.10
2022-11-20T18:48:55.056Z,41.20
2022-11-20T18:51:24.565Z,35.38
2022-11-20T18:53:54.168Z,37.75
2022-11-20T18:56:21.729Z,37.60
2022-11-20T18:58:49.033Z,38.85
2022-11-20T19:01:16.197Z,41.13
2022-11-20T19:03:44.333Z,42.42
2022-11-20T19:06:14.610Z,50.53
2022-11-20T19:08:42.363Z,54.08
2022-11-20T19:11:11.625Z,58.53
2022-11-20T19:13:39.688Z,61.58
2022-11-20T19:16:09.056Z,60.03
2022-11-20T19:18:36.636Z,65.82
2022-11-20T19:21:18.099Z,68.25
2022-11-20T19:23:52.261Z,68.93
2022-11-20T19:26:20.363Z,71.47
2022-11-20T19:28:48.898Z,74.40
2022-11-20T19:31:24.121Z,70.47
2022-11-20T19:34:02.424Z,70.00
2022-11-20T19:36:34.075Z,69.90
2022-11-20T19:39:02.435Z,63.22
2022-11-20T19:41:36.092Z,60.65
2022-11-20T19:44:07.021Z,59.78
2022-11-20T19:46:35.824Z,54.45
2022-11-20T19:49:03.481Z,57.13
2022-11-20T19:51:35.030Z,53.10
2022-11-20T19:54:03.101Z,55.45
2022-11-20T19:56:36.163Z,57.08
2022-11-20T19:59:06.155Z,51.00
2022-11-20T20:01:34.396Z,50.92
2022-11-20T20:04:04.748Z,51.65
2022-11-20T20:06:36.025Z,44.83
2022-11-20T20:09:06.859Z,58.25
2022-11-20T20:11:35.375Z,60.78
2022-11-20T20:14:11.522Z,45.63
2022-11-20T20:16:42.147Z,42.80
2022-11-20T20:19:13.484Z,43.20
2022-11-20T20:21:40.832Z,44.40
2022-11-20T20:24:09.453Z,39.03
2022-11-20T20:26:36.838Z,49.45
2022-11-20T20:29:04.472Z,50.42
2022-11-20T20:31:32.848Z,45.50
2022-11-20T20:34:00.615Z,49.72
2022-11-20T20:36:27.727Z,56.28
2022-11-20T20:38:56.609Z,52.13
2022-11-20T20:41:24.593Z,51.72
2022-11-20T20:43:52.599Z,48.83
2022-11-20T20:46:20.212Z,53.53
2022-11-20T20:48:52.964Z,54.35
2022-11-20T20:53:51.529Z,86.30
2022-11-20T20:56:21.003Z,58.63
2022-11-20T20:58:53.355Z,57.17
2022-11-20T21:01:21.521Z,53.47
2022-11-20T21:03:48.872Z,56.58
2022-11-20T21:06:16.156Z,56.83
2022-11-20T21:08:44.607Z,52.15
2022-11-20T21:11:16.161Z,51.60
2022-11-20T21:13:45.537Z,48.10
2022-11-20T21:16:14.523Z,51.88
2022-11-20T21:18:42.435Z,49.40
2022-11-20T21:21:15.592Z,50.00
2022-11-20T21:23:46.388Z,51.95
2022-11-20T21:26:17.293Z,72.80
2022-11-20T21:28:46.798Z,54.95
2022-11-20T21:31:21.108Z,50.28
2022-11-20T21:33:50.667Z,60.45
2022-11-20T21:36:19.669Z,67.75
2022-11-20T21:38:53.856Z,80.55
2022-11-20T21:44:03.820Z,72.32
2022-11-20T21:46:39.288Z,101.95
2022-11-20T21:49:06.954Z,117.22
2022-11-20T21:51:34.025Z,110.05
2022-11-20T21:54:01.774Z,106.57
2022-11-20T21:56:29.171Z,113.35
2022-11-20T21:58:56.492Z,119.03
2022-11-20T22:01:33.528Z,123.88
2022-11-20T22:04:13.891Z,120.69
2022-11-20T22:06:41.151Z,114.40
2022-11-20T22:09:09.988Z,108.85
2022-11-20T22:11:39.493Z,100.88
2022-11-20T22:14:12.282Z,96.03
2022-11-20T22:16:39.491Z,77.00
2022-11-20T22:19:07.569Z,76.95
2022-11-20T22:21:35.428Z,70.10
2022-11-20T22:24:02.751Z,75.13
2022-11-20T22:26:34.926Z,83.70
2022-11-20T22:29:06.529Z,97.53
2022-11-20T22:31:33.568Z,99.07
2022-11-20T22:34:02.125Z,99.97
2022-11-20T22:36:30.998Z,98.25
2022-11-20T22:38:58.787Z,92.90
2022-11-20T22:41:28.069Z,93.53
2022-11-20T22:43:58.325Z,85.95
2022-11-20T22:46:27.347Z,111.43
2022-11-20T22:49:00.382Z,93.10
2022-11-20T22:51:30.186Z,96.10
2022-11-20T22:54:02.881Z,77.88
2022-11-20T22:56:31.181Z,75.88
2022-11-20T22:59:00.708Z,88.20
2022-11-20T23:01:30.001Z,97.38
2022-11-20T23:04:02.335Z,79.15
2022-11-20T23:06:29.495Z,71.22
2022-11-20T23:08:56.975Z,74.85
2022-11-20T23:11:27.580Z,81.18
2022-11-20T23:13:57.058Z,75.43
2022-11-20T23:16:25.792Z,74.80
2022-11-20T23:18:55.079Z,77.15
2022-11-20T23:21:22.300Z,75.78
2022-11-20T23:23:54.024Z,76.00
2022-11-20T23:26:23.947Z,80.43
2022-11-20T23:28:53.989Z,81.85
2022-11-20T23:31:21.298Z,90.13
2022-11-20T23:33:49.132Z,87.78
2022-11-20T23:36:16.244Z,84.25
2022-11-20T23:38:43.930Z,70.03
2022-11-20T23:41:14.224Z,82.45
2022-11-20T23:43:41.601Z,88.03
2022-11-20T23:46:13.740Z,64.10
2022-11-20T23:48:46.593Z,62.58
2022-11-20T23:51:14.294Z,62.55
2022-11-20T23:53:41.869Z,60.78
2022-11-20T23:56:10.835Z,65.60
2022-11-20T23:58:39.076Z,62.60
